sensor_id;sensor_type;location;lat;lon;timestamp;pressure;altitude;pressure_sealevel;temperature;humidity
36454;BME280;22478;51.740;-1.314;2023-06-26T00:00:00;100321.50;;;12.97;98.03
36454;BME280;22478;51.740;-1.314;2023-06-26T00:02:27;100325.64;;;11.45;100.00
36454;BME280;22478;51.740;-1.314;2023-06-26T00:04:54;100314.38;;;13.43;95.31
36454;BME280;22478;51.740;-1.314;2023-06-26T00:07:21;100316.42;;;14.91;91.86
36454;BME280;22478;51.740;-1.314;2023-06-26T00:09:48;100320.20;;;13.29;98.85
36454;BME280;22478;51.740;-1.314;2023-06-26T00:12:15;100316.88;;;13.52;94.17
36454;BME280;22478;51.740;-1.314;2023-06-26T00:14:42;100319.55;;;13.30;94.55
36454;BME280;22478;51.740;-1.314;2023-06-26T00:17:09;100322.81;;;13.44;95.13
36454;BME280;22478;51.740;-1.314;2023-06-26T00:19:36;100324.05;;;13.97;94.65
36454;BME280;22478;51.740;-1.314;2023-06-26T00:22:04;100332.57;;;11.24;100.00
36454;BME280;22478;51.740;-1.314;2023-06-26T00:24:31;100333.21;;;12.65;100.00
36454;BME280;22478;51.740;-1.314;2023-06-26T00:26:58;100327.03;;;14.38;91.68
36454;BME280;22478;51.740;-1.314;2023-06-26T00:29:25;100332.93;;;13.86;95.46
36454;BME280;22478;51.740;-1.314;2023-06-26T00:31:52;100334.63;;;13.87;96.57
36454;BME280;22478;51.740;-1.314;2023-06-26T00:34:19;100335.97;;;14.28;96.41
36454;BME280;22478;51.740;-1.314;2023-06-26T00:36:46;100337.54;;;13.25;98.58
36454;BME280;22478;51.740;-1.314;2023-06-26T00:39:13;100334.03;;;14.88;91.72
36454;BME280;22478;51.740;-1.314;2023-06-26T00:41:40;100334.22;;;13.96;92.87
36454;BME280;22478;51.740;-1.314;2023-06-26T00:44:07;100336.24;;;13.69;98.94
36454;BME280;22478;51.740;-1.314;2023-06-26T00:46:34;100340.90;;;13.11;100.00
36454;BME280;22478;51.740;-1.314;2023-06-26T00:49:03;100338.80;;;11.66;100.00
36454;BME280;22478;51.740;-1.314;2023-06-26T00:51:31;100342.40;;;11.55;100.00
36454;BME280;22478;51.740;-1.314;2023-06-26T00:53:59;100335.48;;;13.68;100.00
36454;BME280;22478;51.740;-1.314;2023-06-26T00:56:27;100334.54;;;14.59;93.57
36454;BME280;22478;51.740;-1.314;2023-06-26T00:58:54;100348.39;;;12.81;100.00
36454;BME280;22478;51.740;-1.314;2023-06-26T01:01:21;100348.69;;;12.42;100.00
36454;BME280;22478;51.740;-1.314;2023-06-26T01:03:49;100347.14;;;10.82;100.00
36454;BME280;22478;51.740;-1.314;2023-06-26T01:06:17;100347.32;;;12.36;100.00
36454;BME280;22478;51.740;-1.314;2023-06-26T01:08:45;100348.94;;;12.00;100.00
36454;BME280;22478;51.740;-1.314;2023-06-26T01:11:13;100342.64;;;13.82;99.60
36454;BME280;22478;51.740;-1.314;2023-06-26T01:13:42;100349.38;;;11.68;100.00
36454;BME280;22478;51.740;-1.314;2023-06-26T01:16:10;100340.94;;;13.62;100.00
36454;BME280;22478;51.740;-1.314;2023-06-26T01:18:38;100343.72;;;12.87;100.00
36454;BME280;22478;51.740;-1.314;2023-06-26T01:21:07;100343.32;;;11.72;100.00
36454;BME280;22478;51.740;-1.314;2023-06-26T01:23:42;100344.44;;;11.84;100.00
36454;BME280;22478;51.740;-1.314;2023-06-26T01:26:17;100342.30;;;11.46;100.00
36454;BME280;22478;51.740;-1.314;2023-06-26T01:28:46;100344.97;;;12.03;100.00
36454;BME280;22478;51.740;-1.314;2023-06-26T01:31:14;100348.14;;;11.49;100.00
36454;BME280;22478;51.740;-1.314;2023-06-26T01:33:42;100354.59;;;11.62;100.00
36454;BME280;22478;51.740;-1.314;2023-06-26T01:36:10;100364.76;;;10.14;100.00
36454;BME280;22478;51.740;-1.314;2023-06-26T01:38:38;100362.64;;;11.92;100.00
36454;BME280;22478;51.740;-1.314;2023-06-26T01:41:06;100357.14;;;11.64;100.00
36454;BME280;22478;51.740;-1.314;2023-06-26T01:43:40;100358.36;;;12.24;100.00
36454;BME280;22478;51.740;-1.314;2023-06-26T01:46:16;100360.65;;;11.66;100.00
36454;BME280;22478;51.740;-1.314;2023-06-26T01:48:50;100363.56;;;12.79;100.00
36454;BME280;22478;51.740;-1.314;2023-06-26T01:51:25;100369.93;;;12.01;100.00
36454;BME280;22478;51.740;-1.314;2023-06-26T01:53:57;100363.19;;;12.60;100.00
36454;BME280;22478;51.740;-1.314;2023-06-26T01:56:25;100366.46;;;12.65;100.00
36454;BME280;22478;51.740;-1.314;2023-06-26T01:58:55;100368.50;;;11.88;100.00
36454;BME280;22478;51.740;-1.314;2023-06-26T02:01:23;100370.28;;;12.98;100.00
36454;BME280;22478;51.740;-1.314;2023-06-26T02:03:50;100369.97;;;13.32;100.00
36454;BME280;22478;51.740;-1.314;2023-06-26T02:06:18;100372.61;;;12.40;100.00
36454;BME280;22478;51.740;-1.314;2023-06-26T02:08:45;100380.75;;;12.50;100.00
36454;BME280;22478;51.740;-1.314;2023-06-26T02:11:12;100384.11;;;11.87;100.00
36454;BME280;22478;51.740;-1.314;2023-06-26T02:13:39;100382.90;;;12.31;100.00
36454;BME280;22478;51.740;-1.314;2023-06-26T02:16:06;100390.09;;;12.61;100.00
36454;BME280;22478;51.740;-1.314;2023-06-26T02:18:33;100385.95;;;12.14;100.00
36454;BME280;22478;51.740;-1.314;2023-06-26T02:21:03;100383.33;;;12.44;100.00
36454;BME280;22478;51.740;-1.314;2023-06-26T02:23:30;100380.42;;;12.63;100.00
36454;BME280;22478;51.740;-1.314;2023-06-26T02:25:57;100384.59;;;13.21;100.00
36454;BME280;22478;51.740;-1.314;2023-06-26T02:28:24;100375.62;;;14.78;99.95
36454;BME280;22478;51.740;-1.314;2023-06-26T02:30:51;100370.99;;;14.36;96.43
36454;BME280;22478;51.740;-1.314;2023-06-26T02:33:18;100386.54;;;12.26;100.00
36454;BME280;22478;51.740;-1.314;2023-06-26T02:35:45;100382.18;;;13.36;100.00
36454;BME280;22478;51.740;-1.314;2023-06-26T02:38:12;100382.64;;;12.46;100.00
36454;BME280;22478;51.740;-1.314;2023-06-26T02:40:39;100376.17;;;14.07;99.53
36454;BME280;22478;51.740;-1.314;2023-06-26T02:43:07;100380.01;;;13.52;100.00
36454;BME280;22478;51.740;-1.314;2023-06-26T02:45:34;100376.84;;;14.61;100.00
36454;BME280;22478;51.740;-1.314;2023-06-26T02:48:01;100378.97;;;14.12;97.98
36454;BME280;22478;51.740;-1.314;2023-06-26T02:50:27;100382.63;;;12.68;100.00
36454;BME280;22478;51.740;-1.314;2023-06-26T02:52:55;100386.63;;;12.92;100.00
36454;BME280;22478;51.740;-1.314;2023-06-26T02:55:22;100384.09;;;12.20;100.00
36454;BME280;22478;51.740;-1.314;2023-06-26T02:57:49;100386.26;;;12.89;100.00
36454;BME280;22478;51.740;-1.314;2023-06-26T03:00:17;100385.11;;;13.50;100.00
36454;BME280;22478;51.740;-1.314;2023-06-26T03:02:44;100388.06;;;12.14;100.00
36454;BME280;22478;51.740;-1.314;2023-06-26T03:05:11;100392.89;;;13.53;100.00
36454;BME280;22478;51.740;-1.314;2023-06-26T03:07:38;100398.85;;;11.97;100.00
36454;BME280;22478;51.740;-1.314;2023-06-26T03:10:06;100397.49;;;12.57;100.00
36454;BME280;22478;51.740;-1.314;2023-06-26T03:12:34;100397.47;;;12.54;100.00
36454;BME280;22478;51.740;-1.314;2023-06-26T03:15:01;100397.91;;;11.93;100.00
36454;BME280;22478;51.740;-1.314;2023-06-26T03:17:28;100397.17;;;12.19;100.00
36454;BME280;22478;51.740;-1.314;2023-06-26T03:19:55;100403.18;;;10.23;100.00
36454;BME280;22478;51.740;-1.314;2023-06-26T03:22:22;100400.25;;;12.53;100.00
36454;BME280;22478;51.740;-1.314;2023-06-26T03:24:49;100399.30;;;10.95;100.00
36454;BME280;22478;51.740;-1.314;2023-06-26T03:27:16;100400.58;;;10.86;100.00
36454;BME280;22478;51.740;-1.314;2023-06-26T03:29:43;100407.60;;;13.58;100.00
36454;BME280;22478;51.740;-1.314;2023-06-26T03:32:10;100404.97;;;12.25;100.00
36454;BME280;22478;51.740;-1.314;2023-06-26T03:34:38;100408.99;;;12.05;100.00
36454;BME280;22478;51.740;-1.314;2023-06-26T03:37:05;100418.44;;;10.85;100.00
36454;BME280;22478;51.740;-1.314;2023-06-26T03:39:33;100415.59;;;12.50;100.00
36454;BME280;22478;51.740;-1.314;2023-06-26T03:42:01;100423.45;;;12.83;100.00
36454;BME280;22478;51.740;-1.314;2023-06-26T03:44:28;100427.19;;;11.92;100.00
36454;BME280;22478;51.740;-1.314;2023-06-26T03:46:55;100433.99;;;13.92;100.00
36454;BME280;22478;51.740;-1.314;2023-06-26T03:49:22;100432.84;;;12.11;100.00
36454;BME280;22478;51.740;-1.314;2023-06-26T03:51:49;100438.91;;;11.86;100.00
36454;BME280;22478;51.740;-1.314;2023-06-26T03:54:16;100438.98;;;12.35;100.00
36454;BME280;22478;51.740;-1.314;2023-06-26T03:56:43;100446.17;;;11.82;100.00
36454;BME280;22478;51.740;-1.314;2023-06-26T03:59:10;100453.13;;;10.00;100.00
36454;BME280;22478;51.740;-1.314;2023-06-26T04:01:38;100449.43;;;12.34;100.00
36454;BME280;22478;51.740;-1.314;2023-06-26T04:04:05;100449.37;;;10.78;100.00
36454;BME280;22478;51.740;-1.314;2023-06-26T04:06:33;100453.40;;;9.99;100.00
36454;BME280;22478;51.740;-1.314;2023-06-26T04:09:00;100456.32;;;11.14;100.00
36454;BME280;22478;51.740;-1.314;2023-06-26T04:11:27;100459.64;;;11.05;100.00
36454;BME280;22478;51.740;-1.314;2023-06-26T04:13:54;100466.68;;;11.28;100.00
36454;BME280;22478;51.740;-1.314;2023-06-26T04:16:22;100467.39;;;11.17;100.00
36454;BME280;22478;51.740;-1.314;2023-06-26T04:18:49;100461.49;;;11.14;100.00
36454;BME280;22478;51.740;-1.314;2023-06-26T04:21:17;100466.76;;;10.88;100.00
36454;BME280;22478;51.740;-1.314;2023-06-26T04:23:44;100464.66;;;12.65;100.00
36454;BME280;22478;51.740;-1.314;2023-06-26T04:26:10;100464.03;;;12.80;100.00
36454;BME280;22478;51.740;-1.314;2023-06-26T04:28:37;100465.49;;;11.22;100.00
36454;BME280;22478;51.740;-1.314;2023-06-26T04:31:04;100468.87;;;10.81;100.00
36454;BME280;22478;51.740;-1.314;2023-06-26T04:33:31;100467.29;;;12.14;100.00
36454;BME280;22478;51.740;-1.314;2023-06-26T04:35:58;100466.95;;;11.16;100.00
36454;BME280;22478;51.740;-1.314;2023-06-26T04:38:26;100474.51;;;10.03;100.00
36454;BME280;22478;51.740;-1.314;2023-06-26T04:40:53;100479.29;;;11.49;100.00
36454;BME280;22478;51.740;-1.314;2023-06-26T04:43:21;100474.49;;;11.79;100.00
36454;BME280;22478;51.740;-1.314;2023-06-26T04:45:48;100478.41;;;10.36;100.00
36454;BME280;22478;51.740;-1.314;2023-06-26T04:48:15;100478.16;;;10.70;100.00
36454;BME280;22478;51.740;-1.314;2023-06-26T04:50:42;100485.04;;;10.29;100.00
36454;BME280;22478;51.740;-1.314;2023-06-26T04:53:09;100490.67;;;9.17;100.00
36454;BME280;22478;51.740;-1.314;2023-06-26T04:55:36;100488.14;;;10.52;100.00
36454;BME280;22478;51.740;-1.314;2023-06-26T04:58:03;100492.81;;;10.04;100.00
36454;BME280;22478;51.740;-1.314;2023-06-26T05:00:31;100494.93;;;10.89;100.00
36454;BME280;22478;51.740;-1.314;2023-06-26T05:02:58;100496.50;;;11.34;100.00
36454;BME280;22478;51.740;-1.314;2023-06-26T05:05:25;100499.41;;;10.75;100.00
36454;BME280;22478;51.740;-1.314;2023-06-26T05:07:57;100498.01;;;10.81;100.00
36454;BME280;22478;51.740;-1.314;2023-06-26T05:10:24;100501.80;;;11.74;100.00
36454;BME280;22478;51.740;-1.314;2023-06-26T05:12:51;100496.90;;;12.41;100.00
36454;BME280;22478;51.740;-1.314;2023-06-26T05:15:18;100503.03;;;12.05;100.00
36454;BME280;22478;51.740;-1.314;2023-06-26T05:17:45;100505.76;;;11.92;100.00
36454;BME280;22478;51.740;-1.314;2023-06-26T05:20:12;100507.48;;;12.41;100.00
36454;BME280;22478;51.740;-1.314;2023-06-26T05:22:40;100517.66;;;12.99;100.00
36454;BME280;22478;51.740;-1.314;2023-06-26T05:25:09;100521.80;;;11.97;100.00
36454;BME280;22478;51.740;-1.314;2023-06-26T05:27:37;100527.42;;;11.74;100.00
36454;BME280;22478;51.740;-1.314;2023-06-26T05:30:05;100529.44;;;10.44;100.00
36454;BME280;22478;51.740;-1.314;2023-06-26T05:32:35;100531.38;;;11.36;100.00
36454;BME280;22478;51.740;-1.314;2023-06-26T05:35:03;100526.86;;;12.79;100.00
36454;BME280;22478;51.740;-1.314;2023-06-26T05:37:31;100531.22;;;11.89;100.00
36454;BME280;22478;51.740;-1.314;2023-06-26T05:39:59;100531.75;;;12.76;100.00
36454;BME280;22478;51.740;-1.314;2023-06-26T05:42:27;100531.68;;;13.73;100.00
36454;BME280;22478;51.740;-1.314;2023-06-26T05:44:54;100531.86;;;13.79;100.00
36454;BME280;22478;51.740;-1.314;2023-06-26T05:47:21;100535.47;;;12.75;100.00
36454;BME280;22478;51.740;-1.314;2023-06-26T05:49:48;100533.16;;;12.96;100.00
36454;BME280;22478;51.740;-1.314;2023-06-26T05:52:15;100535.93;;;10.73;100.00
36454;BME280;22478;51.740;-1.314;2023-06-26T05:54:44;100530.70;;;13.11;100.00
36454;BME280;22478;51.740;-1.314;2023-06-26T05:57:13;100545.33;;;10.89;100.00
36454;BME280;22478;51.740;-1.314;2023-06-26T05:59:40;100548.09;;;11.70;100.00
36454;BME280;22478;51.740;-1.314;2023-06-26T06:02:10;100545.14;;;11.23;100.00
36454;BME280;22478;51.740;-1.314;2023-06-26T06:04:38;100550.48;;;12.30;100.00
36454;BME280;22478;51.740;-1.314;2023-06-26T06:07:05;100561.16;;;10.81;100.00
36454;BME280;22478;51.740;-1.314;2023-06-26T06:09:32;100560.12;;;11.61;100.00
36454;BME280;22478;51.740;-1.314;2023-06-26T06:11:59;100563.52;;;10.50;100.00
36454;BME280;22478;51.740;-1.314;2023-06-26T06:14:27;100568.53;;;10.25;100.00
36454;BME280;22478;51.740;-1.314;2023-06-26T06:16:54;100571.28;;;10.20;100.00
36454;BME280;22478;51.740;-1.314;2023-06-26T06:19:21;100573.46;;;11.65;100.00
36454;BME280;22478;51.740;-1.314;2023-06-26T06:21:48;100582.19;;;10.91;100.00
36454;BME280;22478;51.740;-1.314;2023-06-26T06:24:16;100579.70;;;12.03;100.00
36454;BME280;22478;51.740;-1.314;2023-06-26T06:26:43;100582.25;;;10.08;100.00
36454;BME280;22478;51.740;-1.314;2023-06-26T06:29:10;100581.31;;;11.14;100.00
36454;BME280;22478;51.740;-1.314;2023-06-26T06:31:37;100581.07;;;11.17;100.00
36454;BME280;22478;51.740;-1.314;2023-06-26T06:34:05;100580.96;;;11.45;100.00
36454;BME280;22478;51.740;-1.314;2023-06-26T06:36:31;100586.01;;;11.39;100.00
36454;BME280;22478;51.740;-1.314;2023-06-26T06:38:58;100593.42;;;10.47;100.00
36454;BME280;22478;51.740;-1.314;2023-06-26T06:41:26;100590.29;;;10.59;100.00
36454;BME280;22478;51.740;-1.314;2023-06-26T06:43:53;100590.87;;;10.49;100.00
36454;BME280;22478;51.740;-1.314;2023-06-26T06:46:19;100599.29;;;11.32;100.00
36454;BME280;22478;51.740;-1.314;2023-06-26T06:48:47;100601.95;;;10.37;100.00
36454;BME280;22478;51.740;-1.314;2023-06-26T06:51:14;100606.32;;;10.70;100.00
36454;BME280;22478;51.740;-1.314;2023-06-26T06:53:40;100611.81;;;10.57;100.00
36454;BME280;22478;51.740;-1.314;2023-06-26T06:56:07;100614.72;;;11.31;100.00
36454;BME280;22478;51.740;-1.314;2023-06-26T06:58:35;100618.93;;;10.86;100.00
36454;BME280;22478;51.740;-1.314;2023-06-26T07:01:02;100623.73;;;12.13;100.00
36454;BME280;22478;51.740;-1.314;2023-06-26T07:03:29;100619.55;;;11.54;100.00
36454;BME280;22478;51.740;-1.314;2023-06-26T07:05:56;100622.76;;;11.19;100.00
36454;BME280;22478;51.740;-1.314;2023-06-26T07:08:23;100622.05;;;11.04;100.00
36454;BME280;22478;51.740;-1.314;2023-06-26T07:10:50;100624.36;;;11.77;100.00
36454;BME280;22478;51.740;-1.314;2023-06-26T07:13:17;100630.12;;;12.68;100.00
36454;BME280;22478;51.740;-1.314;2023-06-26T07:15:45;100628.29;;;12.36;100.00
36454;BME280;22478;51.740;-1.314;2023-06-26T07:18:12;100630.64;;;12.41;100.00
36454;BME280;22478;51.740;-1.314;2023-06-26T07:20:39;100629.55;;;10.91;100.00
36454;BME280;22478;51.740;-1.314;2023-06-26T07:23:06;100629.70;;;11.85;100.00
36454;BME280;22478;51.740;-1.314;2023-06-26T07:25:34;100629.64;;;11.50;100.00
36454;BME280;22478;51.740;-1.314;2023-06-26T07:28:01;100626.23;;;11.26;100.00
36454;BME280;22478;51.740;-1.314;2023-06-26T07:30:28;100629.95;;;12.14;100.00
36454;BME280;22478;51.740;-1.314;2023-06-26T07:32:55;100637.29;;;13.35;100.00
36454;BME280;22478;51.740;-1.314;2023-06-26T07:35:22;100646.42;;;11.89;96.15
36454;BME280;22478;51.740;-1.314;2023-06-26T07:37:49;100649.43;;;12.74;97.63
36454;BME280;22478;51.740;-1.314;2023-06-26T07:40:16;100644.52;;;12.98;96.56
36454;BME280;22478;51.740;-1.314;2023-06-26T07:42:43;100632.72;;;14.29;87.78
36454;BME280;22478;51.740;-1.314;2023-06-26T07:45:10;100639.94;;;13.82;89.19
36454;BME280;22478;51.740;-1.314;2023-06-26T07:47:37;100640.98;;;13.85;89.87
36454;BME280;22478;51.740;-1.314;2023-06-26T07:50:05;100645.37;;;13.22;89.85
36454;BME280;22478;51.740;-1.314;2023-06-26T07:52:34;100650.03;;;14.12;87.18
36454;BME280;22478;51.740;-1.314;2023-06-26T07:55:01;100647.67;;;13.67;84.83
36454;BME280;22478;51.740;-1.314;2023-06-26T07:57:28;100647.40;;;14.49;80.21
36454;BME280;22478;51.740;-1.314;2023-06-26T07:59:55;100645.69;;;13.54;80.02
36454;BME280;22478;51.740;-1.314;2023-06-26T08:02:22;100643.42;;;13.24;78.85
36454;BME280;22478;51.740;-1.314;2023-06-26T08:04:50;100638.78;;;13.61;76.66
36454;BME280;22478;51.740;-1.314;2023-06-26T08:07:17;100648.83;;;13.82;77.06
36454;BME280;22478;51.740;-1.314;2023-06-26T08:09:44;100646.48;;;14.68;68.62
36454;BME280;22478;51.740;-1.314;2023-06-26T08:12:11;100640.13;;;15.90;64.54
36454;BME280;22478;51.740;-1.314;2023-06-26T08:14:38;100644.72;;;14.77;63.61
36454;BME280;22478;51.740;-1.314;2023-06-26T08:17:05;100656.39;;;13.89;66.13
36454;BME280;22478;51.740;-1.314;2023-06-26T08:19:32;100657.24;;;15.41;62.00
36454;BME280;22478;51.740;-1.314;2023-06-26T08:21:59;100651.86;;;16.07;60.19
36454;BME280;22478;51.740;-1.314;2023-06-26T08:24:26;100655.70;;;17.01;59.48
36454;BME280;22478;51.740;-1.314;2023-06-26T08:26:53;100657.08;;;16.02;60.68
36454;BME280;22478;51.740;-1.314;2023-06-26T08:29:19;100660.75;;;15.49;60.59
36454;BME280;22478;51.740;-1.314;2023-06-26T08:31:47;100663.36;;;14.51;64.10
36454;BME280;22478;51.740;-1.314;2023-06-26T08:34:14;100669.66;;;14.40;67.00
36454;BME280;22478;51.740;-1.314;2023-06-26T08:36:41;100651.64;;;16.99;58.31
36454;BME280;22478;51.740;-1.314;2023-06-26T08:39:08;100648.90;;;17.49;57.19
36454;BME280;22478;51.740;-1.314;2023-06-26T08:41:35;100647.88;;;16.81;57.12
36454;BME280;22478;51.740;-1.314;2023-06-26T08:44:03;100652.67;;;17.02;55.05
36454;BME280;22478;51.740;-1.314;2023-06-26T08:46:31;100653.35;;;18.67;53.06
36454;BME280;22478;51.740;-1.314;2023-06-26T08:49:01;100660.61;;;16.63;51.99
36454;BME280;22478;51.740;-1.314;2023-06-26T08:51:34;100661.06;;;20.75;47.84
36454;BME280;22478;51.740;-1.314;2023-06-26T08:54:07;100658.89;;;19.23;47.31
36454;BME280;22478;51.740;-1.314;2023-06-26T08:56:39;100667.76;;;17.81;48.51
36454;BME280;22478;51.740;-1.314;2023-06-26T08:59:07;100665.11;;;17.58;46.89
36454;BME280;22478;51.740;-1.314;2023-06-26T09:01:36;100661.79;;;15.66;50.82
36454;BME280;22478;51.740;-1.314;2023-06-26T09:04:04;100660.97;;;15.90;53.29
36454;BME280;22478;51.740;-1.314;2023-06-26T09:06:32;100663.58;;;15.89;52.99
36454;BME280;22478;51.740;-1.314;2023-06-26T09:08:59;100674.89;;;14.91;57.97
36454;BME280;22478;51.740;-1.314;2023-06-26T09:11:25;100668.14;;;15.98;56.48
36454;BME280;22478;51.740;-1.314;2023-06-26T09:13:52;100668.16;;;16.65;53.95
36454;BME280;22478;51.740;-1.314;2023-06-26T09:16:24;100676.86;;;14.12;60.66
36454;BME280;22478;51.740;-1.314;2023-06-26T09:18:52;100675.51;;;14.36;63.64
36454;BME280;22478;51.740;-1.314;2023-06-26T09:21:19;100670.23;;;16.25;57.26
36454;BME280;22478;51.740;-1.314;2023-06-26T09:23:47;100669.40;;;17.73;52.17
36454;BME280;22478;51.740;-1.314;2023-06-26T09:26:15;100673.31;;;16.23;51.32
36454;BME280;22478;51.740;-1.314;2023-06-26T09:28:42;100667.08;;;17.71;49.71
36454;BME280;22478;51.740;-1.314;2023-06-26T09:31:10;100668.09;;;18.06;46.82
36454;BME280;22478;51.740;-1.314;2023-06-26T09:33:38;100665.40;;;18.17;48.20
36454;BME280;22478;51.740;-1.314;2023-06-26T09:36:06;100667.80;;;18.57;49.21
36454;BME280;22478;51.740;-1.314;2023-06-26T09:38:34;100669.02;;;19.14;48.34
36454;BME280;22478;51.740;-1.314;2023-06-26T09:41:02;100666.12;;;17.83;51.33
36454;BME280;22478;51.740;-1.314;2023-06-26T09:43:29;100672.83;;;18.79;49.31
36454;BME280;22478;51.740;-1.314;2023-06-26T09:45:56;100677.60;;;16.29;55.43
36454;BME280;22478;51.740;-1.314;2023-06-26T09:48:23;100681.04;;;18.38;49.91
36454;BME280;22478;51.740;-1.314;2023-06-26T09:50:50;100677.52;;;16.11;53.51
36454;BME280;22478;51.740;-1.314;2023-06-26T09:53:17;100669.52;;;20.92;44.50
36454;BME280;22478;51.740;-1.314;2023-06-26T09:55:46;100674.13;;;19.04;44.93
36454;BME280;22478;51.740;-1.314;2023-06-26T09:58:13;100671.45;;;20.02;44.95
36454;BME280;22478;51.740;-1.314;2023-06-26T10:00:42;100676.99;;;19.63;44.38
36454;BME280;22478;51.740;-1.314;2023-06-26T10:03:10;100690.91;;;19.41;44.77
36454;BME280;22478;51.740;-1.314;2023-06-26T10:05:38;100691.16;;;19.49;44.79
36454;BME280;22478;51.740;-1.314;2023-06-26T10:08:06;100690.36;;;20.11;44.04
36454;BME280;22478;51.740;-1.314;2023-06-26T10:10:35;100688.20;;;17.28;48.44
36454;BME280;22478;51.740;-1.314;2023-06-26T10:13:08;100696.73;;;18.12;48.29
36454;BME280;22478;51.740;-1.314;2023-06-26T10:15:40;100702.35;;;18.71;48.38
36454;BME280;22478;51.740;-1.314;2023-06-26T10:18:09;100699.58;;;20.19;44.15
36454;BME280;22478;51.740;-1.314;2023-06-26T10:20:37;100696.11;;;21.56;42.93
36454;BME280;22478;51.740;-1.314;2023-06-26T10:23:06;100699.53;;;17.99;49.01
36454;BME280;22478;51.740;-1.314;2023-06-26T10:25:37;100691.38;;;20.65;45.21
36454;BME280;22478;51.740;-1.314;2023-06-26T10:28:07;100700.19;;;18.45;46.09
36454;BME280;22478;51.740;-1.314;2023-06-26T10:30:36;100692.01;;;21.31;41.92
36454;BME280;22478;51.740;-1.314;2023-06-26T10:33:05;100696.34;;;21.24;40.61
36454;BME280;22478;51.740;-1.314;2023-06-26T10:35:41;100700.86;;;21.25;38.71
36454;BME280;22478;51.740;-1.314;2023-06-26T10:38:09;100694.72;;;20.13;40.84
36454;BME280;22478;51.740;-1.314;2023-06-26T10:40:44;100698.26;;;18.91;42.36
36454;BME280;22478;51.740;-1.314;2023-06-26T10:43:13;100703.08;;;20.33;42.51
36454;BME280;22478;51.740;-1.314;2023-06-26T10:45:44;100715.66;;;18.16;45.25
36454;BME280;22478;51.740;-1.314;2023-06-26T10:48:14;100706.92;;;22.17;40.39
36454;BME280;22478;51.740;-1.314;2023-06-26T10:50:41;100703.42;;;22.88;39.16
36454;BME280;22478;51.740;-1.314;2023-06-26T10:53:10;100714.08;;;20.94;41.81
36454;BME280;22478;51.740;-1.314;2023-06-26T10:55:42;100722.96;;;17.92;45.40
36454;BME280;22478;51.740;-1.314;2023-06-26T10:58:41;100718.45;;;19.63;44.10
36454;BME280;22478;51.740;-1.314;2023-06-26T11:01:24;100716.78;;;19.21;45.19
36454;BME280;22478;51.740;-1.314;2023-06-26T11:04:08;100706.89;;;20.12;43.36
36454;BME280;22478;51.740;-1.314;2023-06-26T11:06:38;100716.66;;;19.17;44.72
36454;BME280;22478;51.740;-1.314;2023-06-26T11:09:08;100718.96;;;19.91;44.33
36454;BME280;22478;51.740;-1.314;2023-06-26T11:12:08;100721.74;;;18.42;45.19
36454;BME280;22478;51.740;-1.314;2023-06-26T11:14:35;100711.21;;;22.19;40.70
36454;BME280;22478;51.740;-1.314;2023-06-26T11:17:03;100713.18;;;21.63;40.91
36454;BME280;22478;51.740;-1.314;2023-06-26T11:19:30;100722.04;;;20.95;38.76
36454;BME280;22478;51.740;-1.314;2023-06-26T11:22:01;100711.76;;;23.09;35.99
36454;BME280;22478;51.740;-1.314;2023-06-26T11:24:29;100722.66;;;19.88;39.31
36454;BME280;22478;51.740;-1.314;2023-06-26T11:27:00;100724.85;;;19.58;40.58
36454;BME280;22478;51.740;-1.314;2023-06-26T11:29:29;100721.30;;;19.47;40.75
36454;BME280;22478;51.740;-1.314;2023-06-26T11:32:02;100721.34;;;22.04;38.19
36454;BME280;22478;51.740;-1.314;2023-06-26T11:34:30;100729.15;;;21.20;37.43
36454;BME280;22478;51.740;-1.314;2023-06-26T11:36:58;100739.46;;;18.89;39.45
36454;BME280;22478;51.740;-1.314;2023-06-26T11:39:25;100736.67;;;18.42;41.44
36454;BME280;22478;51.740;-1.314;2023-06-26T11:41:52;100737.54;;;19.87;38.77
36454;BME280;22478;51.740;-1.314;2023-06-26T11:44:21;100737.35;;;20.97;38.46
36454;BME280;22478;51.740;-1.314;2023-06-26T11:46:52;100745.20;;;18.26;39.21
36454;BME280;22478;51.740;-1.314;2023-06-26T11:49:19;100739.60;;;19.83;38.66
36454;BME280;22478;51.740;-1.314;2023-06-26T11:51:47;100738.65;;;20.35;37.21
36454;BME280;22478;51.740;-1.314;2023-06-26T11:54:14;100732.64;;;20.70;37.13
36454;BME280;22478;51.740;-1.314;2023-06-26T11:56:41;100737.36;;;19.02;37.74
36454;BME280;22478;51.740;-1.314;2023-06-26T11:59:12;100737.88;;;21.99;36.52
36454;BME280;22478;51.740;-1.314;2023-06-26T12:01:41;100737.33;;;21.52;36.34
36454;BME280;22478;51.740;-1.314;2023-06-26T12:04:10;100739.70;;;20.41;36.98
36454;BME280;22478;51.740;-1.314;2023-06-26T12:06:40;100746.45;;;19.36;38.23
36454;BME280;22478;51.740;-1.314;2023-06-26T12:09:09;100736.41;;;20.93;36.24
36454;BME280;22478;51.740;-1.314;2023-06-26T12:11:38;100738.51;;;21.11;36.04
36454;BME280;22478;51.740;-1.314;2023-06-26T12:14:06;100748.33;;;18.04;39.58
36454;BME280;22478;51.740;-1.314;2023-06-26T12:16:35;100744.66;;;21.19;36.33
36454;BME280;22478;51.740;-1.314;2023-06-26T12:19:03;100736.37;;;20.00;36.37
36454;BME280;22478;51.740;-1.314;2023-06-26T12:21:46;100744.64;;;19.45;38.54
36454;BME280;22478;51.740;-1.314;2023-06-26T12:24:14;100746.00;;;19.42;39.25
36454;BME280;22478;51.740;-1.314;2023-06-26T12:26:42;100742.36;;;17.35;41.46
36454;BME280;22478;51.740;-1.314;2023-06-26T12:29:12;100742.32;;;17.11;40.94
36454;BME280;22478;51.740;-1.314;2023-06-26T12:31:40;100739.54;;;17.88;39.37
36454;BME280;22478;51.740;-1.314;2023-06-26T12:34:10;100746.97;;;17.37;40.40
36454;BME280;22478;51.740;-1.314;2023-06-26T12:36:41;100748.32;;;17.95;40.79
36454;BME280;22478;51.740;-1.314;2023-06-26T12:39:10;100746.10;;;19.51;39.41